createdAt,value
2022-10-21T00:02:26.795Z,12.98
2022-10-21T00:04:53.521Z,11.68
2022-10-21T00:07:20.276Z,15.30
2022-10-21T00:09:46.977Z,12.85
2022-10-21T00:12:13.721Z,10.85
2022-10-21T00:14:40.431Z,11.95
2022-10-21T00:17:07.121Z,10.77
2022-10-21T00:19:34.112Z,12.50
2022-10-21T00:22:00.802Z,13.90
2022-10-21T00:24:27.644Z,12.80
2022-10-21T00:26:56.335Z,12.88
2022-10-21T00:29:23.185Z,18.05
2022-10-21T00:31:53.872Z,10.98
2022-10-21T00:34:21.415Z,12.95
2022-10-21T00:36:48.293Z,19.33
2022-10-21T00:39:15.360Z,14.80
2022-10-21T00:41:42.103Z,11.82
2022-10-21T00:44:13.305Z,13.63
2022-10-21T00:46:51.564Z,19.05
2022-10-21T00:49:24.846Z,14.88
2022-10-21T00:51:56.691Z,12.48
2022-10-21T00:54:25.465Z,17.70
2022-10-21T00:56:54.827Z,16.05
2022-10-21T00:59:24.033Z,14.60
2022-10-21T01:01:51.674Z,14.00
2022-10-21T01:04:18.411Z,13.48
2022-10-21T01:06:47.180Z,14.73
2022-10-21T01:09:15.114Z,15.65
2022-10-21T01:11:44.815Z,13.07
2022-10-21T01:14:23.622Z,14.70
2022-10-21T01:17:03.000Z,15.40
2022-10-21T01:19:32.592Z,15.48
2022-10-21T01:22:14.652Z,11.68
2022-10-21T01:25:11.579Z,14.05
2022-10-21T01:28:05.592Z,15.25
2022-10-21T01:30:47.781Z,17.42
2022-10-21T01:33:30.680Z,14.55
2022-10-21T01:36:10.236Z,14.02
2022-10-21T01:39:10.662Z,13.13
2022-10-21T01:41:51.528Z,14.95
2022-10-21T01:44:28.112Z,14.35
2022-10-21T01:46:59.502Z,16.83
2022-10-21T01:49:38.361Z,15.93
2022-10-21T01:52:06.739Z,16.25
2022-10-21T01:54:48.138Z,19.92
2022-10-21T01:57:20.026Z,16.67
2022-10-21T01:59:48.113Z,15.77
2022-10-21T02:02:16.309Z,17.25
2022-10-21T02:04:44.844Z,17.73
2022-10-21T02:07:11.647Z,15.38
2022-10-21T02:09:38.355Z,16.52
2022-10-21T02:12:06.735Z,20.33
2022-10-21T02:14:45.249Z,19.10
2022-10-21T02:17:16.494Z,13.82
2022-10-21T02:19:43.282Z,19.67
2022-10-21T02:22:13.514Z,15.30
2022-10-21T02:24:51.523Z,13.95
2022-10-21T02:27:19.399Z,14.82
2022-10-21T02:29:48.715Z,15.60
2022-10-21T02:32:49.457Z,16.65
2022-10-21T02:35:29.273Z,15.05
2022-10-21T02:38:10.794Z,15.65
2022-10-21T02:40:45.073Z,17.27
2022-10-21T02:43:17.855Z,15.02
2022-10-21T02:45:46.890Z,15.48
2022-10-21T02:48:13.988Z,15.90
2022-10-21T02:50:40.835Z,17.60
2022-10-21T02:53:10.299Z,22.08
2022-10-21T02:55:37.025Z,19.77
2022-10-21T02:58:03.892Z,23.38
2022-10-21T03:00:32.815Z,15.80
2022-10-21T03:03:00.113Z,15.80
2022-10-21T03:05:26.924Z,15.43
2022-10-21T03:07:53.621Z,16.70
2022-10-21T03:10:20.418Z,17.17
2022-10-21T03:12:49.952Z,17.00
2022-10-21T03:15:17.127Z,24.20
2022-10-21T03:17:43.952Z,18.42
2022-10-21T03:20:10.934Z,17.77
2022-10-21T03:22:37.661Z,19.33
2022-10-21T03:25:05.401Z,17.38
2022-10-21T03:30:07.696Z,17.42
2022-10-21T03:32:34.599Z,16.25
2022-10-21T03:35:01.422Z,13.95
2022-10-21T03:37:28.301Z,16.48
2022-10-21T03:39:54.984Z,17.13
2022-10-21T03:42:21.871Z,14.25
2022-10-21T03:44:48.594Z,18.33
2022-10-21T03:47:15.411Z,17.20
2022-10-21T03:49:42.178Z,18.38
2022-10-21T03:52:08.852Z,16.30
2022-10-21T03:54:35.562Z,16.95
2022-10-21T03:57:02.346Z,16.65
2022-10-21T03:59:29.232Z,13.60
2022-10-21T04:01:55.979Z,17.25
2022-10-21T04:04:22.817Z,15.52
2022-10-21T04:06:49.489Z,17.27
2022-10-21T04:09:16.316Z,18.98
2022-10-21T04:11:43.061Z,15.60
2022-10-21T04:14:12.941Z,17.45
2022-10-21T04:16:42.038Z,15.65
2022-10-21T04:19:09.304Z,19.25
2022-10-21T04:21:36.033Z,16.30
2022-10-21T04:24:02.763Z,14.80
2022-10-21T04:26:29.529Z,14.02
2022-10-21T04:28:56.235Z,14.93
2022-10-21T04:31:23.015Z,14.35
2022-10-21T04:33:52.272Z,12.82
2022-10-21T04:36:19.316Z,14.60
2022-10-21T04:38:46.007Z,15.25
2022-10-21T04:41:12.965Z,14.23
2022-10-21T04:43:40.691Z,16.60
2022-10-21T04:46:14.235Z,17.13
2022-10-21T04:48:41.277Z,22.00
2022-10-21T04:51:07.998Z,18.27
2022-10-21T04:53:34.701Z,18.73
2022-10-21T04:56:01.541Z,17.80
2022-10-21T04:58:28.246Z,18.08
2022-10-21T05:00:55.058Z,19.25
2022-10-21T05:03:21.837Z,20.98
2022-10-21T05:05:52.558Z,19.67
2022-10-21T05:08:20.504Z,18.00
2022-10-21T05:10:47.608Z,17.35
2022-10-21T05:13:14.857Z,18.50
2022-10-21T05:15:41.569Z,18.58
2022-10-21T05:18:08.252Z,16.75
2022-10-21T05:20:51.593Z,19.88
2022-10-21T05:23:18.711Z,21.13
2022-10-21T05:25:46.695Z,21.45
2022-10-21T05:28:13.886Z,17.05
2022-10-21T05:33:09.021Z,17.50
2022-10-21T05:35:36.128Z,18.25
2022-10-21T05:38:04.505Z,18.77
2022-10-21T05:40:32.139Z,21.13
2022-10-21T05:42:58.950Z,17.27
2022-10-21T05:45:27.164Z,18.08
2022-10-21T05:47:53.958Z,20.85
2022-10-21T05:50:20.853Z,17.02
2022-10-21T05:52:47.562Z,17.75
2022-10-21T05:55:14.466Z,17.15
2022-10-21T05:57:41.206Z,17.95
2022-10-21T06:00:09.014Z,16.58
2022-10-21T06:02:35.845Z,18.25
2022-10-21T06:05:02.967Z,19.90
2022-10-21T06:07:29.683Z,18.40
2022-10-21T06:09:56.372Z,20.27
2022-10-21T06:12:23.073Z,16.98
2022-10-21T06:14:50.101Z,21.15
2022-10-21T06:17:17.025Z,17.50
2022-10-21T06:19:46.040Z,20.33
2022-10-21T06:22:15.651Z,19.75
2022-10-21T06:24:42.431Z,17.63
2022-10-21T06:27:09.228Z,19.17
2022-10-21T06:29:35.947Z,17.08
2022-10-21T06:32:02.813Z,16.95
2022-10-21T06:34:29.513Z,17.45
2022-10-21T06:36:56.318Z,17.27
2022-10-21T06:39:23.056Z,18.83
2022-10-21T06:41:49.831Z,14.88
2022-10-21T06:44:16.582Z,20.33
2022-10-21T06:46:43.289Z,17.02
2022-10-21T06:49:12.714Z,16.60
2022-10-21T06:51:39.435Z,17.85
2022-10-21T06:54:06.245Z,13.57
2022-10-21T06:56:35.591Z,13.75
2022-10-21T06:59:02.733Z,12.32
2022-10-21T07:01:48.101Z,13.00
2022-10-21T07:04:20.202Z,12.50
2022-10-21T07:06:47.043Z,11.27
2022-10-21T07:09:13.773Z,11.55
2022-10-21T07:11:40.615Z,14.55
2022-10-21T07:14:07.715Z,15.35
2022-10-21T07:16:36.756Z,12.02
2022-10-21T07:19:04.421Z,11.97
2022-10-21T07:21:32.582Z,12.55
2022-10-21T07:24:00.625Z,10.68
2022-10-21T07:26:30.207Z,13.57
2022-10-21T07:28:59.713Z,11.90
2022-10-21T07:31:27.704Z,10.60
2022-10-21T07:33:54.955Z,17.40
2022-10-21T07:36:25.379Z,10.73
2022-10-21T07:38:53.333Z,13.73
2022-10-21T07:41:26.555Z,16.98
2022-10-21T07:43:54.011Z,12.77
2022-10-21T07:46:21.862Z,15.48
2022-10-21T07:48:49.197Z,13.30
2022-10-21T07:51:18.352Z,13.25
2022-10-21T07:53:45.902Z,15.07
2022-10-21T07:56:24.999Z,19.27
2022-10-21T07:58:53.298Z,14.07
2022-10-21T08:01:21.028Z,14.10
2022-10-21T08:03:48.313Z,12.07
2022-10-21T08:06:17.016Z,12.15
2022-10-21T08:08:44.592Z,11.45
2022-10-21T08:11:11.705Z,9.88
2022-10-21T08:13:41.675Z,13.30
2022-10-21T08:16:08.866Z,12.80
2022-10-21T08:18:35.569Z,13.82
2022-10-21T08:21:04.158Z,11.68
2022-10-21T08:23:31.442Z,12.75
2022-10-21T08:26:00.819Z,17.13
2022-10-21T08:28:29.389Z,10.35
2022-10-21T08:31:07.095Z,11.52
2022-10-21T08:33:34.642Z,12.15
2022-10-21T08:36:27.632Z,10.65
2022-10-21T08:38:55.271Z,11.50
2022-10-21T08:41:31.113Z,13.20
2022-10-21T08:44:05.141Z,19.48
2022-10-21T08:46:47.451Z,12.38
2022-10-21T08:49:29.996Z,14.05
2022-10-21T08:52:05.792Z,12.68
2022-10-21T08:54:55.306Z,17.13
2022-10-21T08:57:22.631Z,12.27
2022-10-21T08:59:51.771Z,11.65
2022-10-21T09:02:32.394Z,14.20
2022-10-21T09:05:21.125Z,13.40
2022-10-21T09:07:56.892Z,11.35
2022-10-21T09:10:43.022Z,11.60
2022-10-21T09:13:43.818Z,10.48
2022-10-21T09:16:54.206Z,14.13
2022-10-21T09:19:43.464Z,13.38
2022-10-21T09:22:48.022Z,12.57
2022-10-21T09:25:20.052Z,14.82
2022-10-21T09:28:02.943Z,12.40
2022-10-21T09:30:30.148Z,17.17
2022-10-21T09:32:59.241Z,13.05
2022-10-21T09:35:52.424Z,12.90
2022-10-21T09:38:33.971Z,11.63
2022-10-21T09:41:03.615Z,13.40
2022-10-21T09:43:31.453Z,14.77
2022-10-21T09:45:59.664Z,13.10
2022-10-21T09:48:54.047Z,12.35
2022-10-21T09:51:37.994Z,12.90
2022-10-21T09:54:15.102Z,11.50
2022-10-21T09:57:06.652Z,11.60
2022-10-21T09:59:33.794Z,13.60
2022-10-21T10:02:15.829Z,13.18
2022-10-21T10:04:42.565Z,11.18
2022-10-21T10:07:37.141Z,12.98
2022-10-21T10:10:24.832Z,13.07
2022-10-21T10:13:01.054Z,11.55
2022-10-21T10:15:37.546Z,14.10
2022-10-21T10:18:04.731Z,12.63
2022-10-21T10:20:31.529Z,16.17
2022-10-21T10:23:01.084Z,15.00
2022-10-21T10:25:39.122Z,13.13
2022-10-21T10:28:08.721Z,16.63
2022-10-21T10:30:41.553Z,15.70
2022-10-21T10:33:14.613Z,14.20
2022-10-21T10:35:49.365Z,13.95
2022-10-21T10:38:40.262Z,12.68
2022-10-21T10:41:15.878Z,12.30
2022-10-21T10:44:02.074Z,16.77
2022-10-21T10:46:37.123Z,14.55
2022-10-21T10:49:24.796Z,15.23
2022-10-21T10:52:09.725Z,11.77
2022-10-21T10:54:40.460Z,11.43
2022-10-21T10:57:13.017Z,14.98
2022-10-21T10:59:44.879Z,12.02
2022-10-21T11:02:23.436Z,12.98
2022-10-21T11:05:15.070Z,13.30
2022-10-21T11:07:51.832Z,11.70
2022-10-21T11:10:37.381Z,22.90
2022-10-21T11:13:12.014Z,16.02
2022-10-21T11:15:50.871Z,14.63
2022-10-21T11:18:50.275Z,13.55
2022-10-21T11:21:45.399Z,13.63
2022-10-21T11:24:15.674Z,14.60
2022-10-21T11:27:01.268Z,12.02
2022-10-21T11:29:53.041Z,16.02
2022-10-21T11:32:28.150Z,12.27
2022-10-21T11:35:17.870Z,14.85
2022-10-21T11:37:53.542Z,10.73
2022-10-21T11:40:32.439Z,18.65
2022-10-21T11:43:26.425Z,15.05
2022-10-21T11:46:05.594Z,14.52
2022-10-21T11:48:50.630Z,13.48
2022-10-21T11:51:37.559Z,13.43
2022-10-21T11:54:45.516Z,11.63
2022-10-21T11:57:36.162Z,11.98
2022-10-21T12:00:11.933Z,11.05
2022-10-21T12:02:44.729Z,13.77
2022-10-21T12:05:30.874Z,12.85
2022-10-21T12:08:17.146Z,15.90
2022-10-21T12:10:53.134Z,12.27
2022-10-21T12:13:42.392Z,15.13
2022-10-21T12:16:15.462Z,11.05
2022-10-21T12:18:50.270Z,12.52
2022-10-21T12:21:21.166Z,13.68
2022-10-21T12:23:53.326Z,11.07
2022-10-21T12:26:58.492Z,13.98
2022-10-21T12:29:42.953Z,12.50
2022-10-21T12:32:31.521Z,12.63
2022-10-21T12:34:58.487Z,13.13
2022-10-21T12:37:51.061Z,14.20
2022-10-21T12:40:38.077Z,15.00
2022-10-21T12:43:27.554Z,15.63
2022-10-21T12:46:09.283Z,14.38
2022-10-21T12:48:40.263Z,18.40
2022-10-21T12:51:18.619Z,14.10
2022-10-21T12:53:52.900Z,11.18
2022-10-21T12:56:33.664Z,15.32
2022-10-21T12:59:05.373Z,11.15
2022-10-21T13:01:42.612Z,12.15
2022-10-21T13:04:47.240Z,16.30
2022-10-21T13:07:16.681Z,12.52
2022-10-21T13:10:06.606Z,12.27
2022-10-21T13:15:02.366Z,11.40
2022-10-21T13:17:31.862Z,13.25
2022-10-21T13:20:21.454Z,12.65
2022-10-21T13:23:02.045Z,12.15
2022-10-21T13:25:34.707Z,17.55
2022-10-21T13:28:04.494Z,11.25
2022-10-21T13:30:34.848Z,14.02
2022-10-21T13:33:06.960Z,13.20
2022-10-21T13:35:43.637Z,11.98
2022-10-21T13:38:34.437Z,10.77
2022-10-21T13:41:04.172Z,10.35
2022-10-21T13:43:34.022Z,11.75
2022-10-21T13:46:14.623Z,17.48
2022-10-21T13:48:44.520Z,12.73
2022-10-21T13:53:46.949Z,10.93
2022-10-21T13:59:39.995Z,9.50
2022-10-21T14:02:06.891Z,9.68
2022-10-21T14:04:40.237Z,14.82
2022-10-21T14:07:16.182Z,10.18
2022-10-21T14:09:49.328Z,16.90
2022-10-21T14:12:41.719Z,15.20
2022-10-21T14:15:18.270Z,10.05
2022-10-21T14:17:50.335Z,12.77
2022-10-21T14:20:34.049Z,11.30
2022-10-21T14:23:06.799Z,8.60
2022-10-21T14:25:39.709Z,20.65
2022-10-21T14:28:06.673Z,13.35
2022-10-21T14:30:34.927Z,14.48
2022-10-21T14:33:04.650Z,15.18
2022-10-21T14:35:31.874Z,10.15
2022-10-21T14:38:04.022Z,10.93
2022-10-21T14:40:32.582Z,7.45
2022-10-21T14:43:21.136Z,12.43
2022-10-21T14:45:51.008Z,11.25
2022-10-21T14:51:17.677Z,12.75
2022-10-21T14:53:55.928Z,12.05
2022-10-21T14:56:41.239Z,9.35
2022-10-21T14:59:23.236Z,9.27
2022-10-21T15:01:50.174Z,13.15
2022-10-21T15:04:43.922Z,10.30
2022-10-21T15:07:17.971Z,8.35
2022-10-21T15:10:03.140Z,13.85
2022-10-21T15:12:40.581Z,7.25
2022-10-21T15:15:48.362Z,10.40
2022-10-21T15:18:20.183Z,13.90
2022-10-21T15:20:56.071Z,10.27
2022-10-21T15:23:30.202Z,12.55
2022-10-21T15:26:00.762Z,6.63
2022-10-21T15:28:35.352Z,12.20
2022-10-21T15:31:03.123Z,11.13
2022-10-21T15:33:30.326Z,9.65
2022-10-21T15:36:05.143Z,12.05
2022-10-21T15:38:31.851Z,14.20
2022-10-21T15:40:58.598Z,8.93
2022-10-21T15:43:25.362Z,8.85
2022-10-21T15:45:52.436Z,11.32
2022-10-21T15:48:20.721Z,9.85
2022-10-21T15:50:47.553Z,7.45
2022-10-21T15:53:14.314Z,8.13
2022-10-21T15:55:41.654Z,6.93
2022-10-21T15:58:10.296Z,9.70
2022-10-21T16:00:40.168Z,7.97
2022-10-21T16:03:08.514Z,12.88
2022-10-21T16:05:35.365Z,21.70
2022-10-21T16:08:02.134Z,30.15
2022-10-21T16:10:33.061Z,23.45
2022-10-21T16:12:59.891Z,19.50
2022-10-21T16:15:26.971Z,11.77
2022-10-21T16:17:56.826Z,12.93
2022-10-21T16:22:52.364Z,13.57
2022-10-21T16:25:19.275Z,12.55
2022-10-21T16:28:01.952Z,12.80
2022-10-21T16:30:33.461Z,16.92
2022-10-21T16:33:00.631Z,12.85
2022-10-21T16:35:28.016Z,14.32
2022-10-21T16:37:56.254Z,16.08
2022-10-21T16:40:32.392Z,13.85
2022-10-21T16:42:59.310Z,10.25
2022-10-21T16:45:30.901Z,8.75
2022-10-21T16:48:02.023Z,9.15
2022-10-21T16:50:39.791Z,11.68
2022-10-21T16:53:29.122Z,8.65
2022-10-21T16:55:56.333Z,8.40
2022-10-21T16:58:23.641Z,12.52
2022-10-21T17:00:51.135Z,10.55
2022-10-21T17:03:18.793Z,10.48
2022-10-21T17:05:45.557Z,7.88
2022-10-21T17:08:12.442Z,7.30
2022-10-21T17:10:39.704Z,9.27
2022-10-21T17:13:09.562Z,7.45
2022-10-21T17:15:36.594Z,12.95
2022-10-21T17:18:03.832Z,13.45
2022-10-21T17:20:33.105Z,8.25
2022-10-21T17:23:01.280Z,8.20
2022-10-21T17:25:30.502Z,10.52
2022-10-21T17:27:58.466Z,9.77
2022-10-21T17:30:27.255Z,7.55
2022-10-21T17:32:54.493Z,10.40
2022-10-21T17:35:21.887Z,12.50
2022-10-21T17:37:50.412Z,11.52
2022-10-21T17:40:21.506Z,9.68
2022-10-21T17:42:49.813Z,7.70
2022-10-21T17:45:20.196Z,8.30
2022-10-21T17:47:47.870Z,9.30
2022-10-21T17:50:15.101Z,10.23
2022-10-21T17:52:46.920Z,9.15
2022-10-21T17:55:14.518Z,10.00
2022-10-21T17:57:41.816Z,11.05
2022-10-21T18:00:09.714Z,9.77
2022-10-21T18:02:37.695Z,11.32
2022-10-21T18:05:08.836Z,14.27
2022-10-21T18:07:37.714Z,8.63
2022-10-21T18:10:06.496Z,12.70
2022-10-21T18:12:35.525Z,9.57
2022-10-21T18:15:03.422Z,9.80
2022-10-21T18:17:31.079Z,8.90
2022-10-21T18:19:58.552Z,9.57
2022-10-21T18:22:26.477Z,9.30
2022-10-21T18:24:54.222Z,9.63
2022-10-21T18:27:22.132Z,7.25
2022-10-21T18:29:49.678Z,10.00
2022-10-21T18:32:17.788Z,10.32
2022-10-21T18:34:45.357Z,10.07
2022-10-21T18:37:13.061Z,12.00
2022-10-21T18:39:40.834Z,8.80
2022-10-21T18:42:08.416Z,11.10
2022-10-21T18:44:35.484Z,9.95
2022-10-21T18:47:04.543Z,10.88
2022-10-21T18:49:32.207Z,9.43
2022-10-21T18:51:59.967Z,9.63
2022-10-21T18:54:27.663Z,13.60
2022-10-21T18:56:57.695Z,8.10
2022-10-21T19:04:24.452Z,14.13
2022-10-21T19:06:52.134Z,8.48
2022-10-21T19:09:26.483Z,7.40
2022-10-21T19:11:54.831Z,10.50
2022-10-21T19:14:22.445Z,9.18
2022-10-21T19:16:50.173Z,11.57
2022-10-21T19:19:18.639Z,11.27
2022-10-21T19:21:46.181Z,10.73
2022-10-21T19:24:14.162Z,10.40
2022-10-21T19:26:43.807Z,13.35
2022-10-21T19:29:14.384Z,10.45
2022-10-21T19:31:42.796Z,8.52
2022-10-21T19:34:22.386Z,8.55
2022-10-21T19:36:50.470Z,13.80
2022-10-21T19:39:18.346Z,13.20
2022-10-21T19:41:46.292Z,9.43
2022-10-21T19:44:14.842Z,9.90
2022-10-21T19:46:45.282Z,11.73
2022-10-21T19:49:14.958Z,10.18
2022-10-21T19:51:43.458Z,9.40
2022-10-21T19:54:14.538Z,10.07
2022-10-21T19:56:42.346Z,10.35
2022-10-21T19:59:12.482Z,11.00
2022-10-21T20:01:40.769Z,10.73
2022-10-21T20:04:08.026Z,10.98
2022-10-21T20:06:37.534Z,9.88
2022-10-21T20:09:08.038Z,10.93
2022-10-21T20:11:36.405Z,17.88
2022-10-21T20:14:04.461Z,14.30
2022-10-21T20:16:38.886Z,10.52
2022-10-21T20:19:08.524Z,9.93
2022-10-21T20:21:38.593Z,11.57
2022-10-21T20:24:06.322Z,13.77
2022-10-21T20:26:34.443Z,14.77
2022-10-21T20:29:03.131Z,8.90
2022-10-21T20:31:31.275Z,11.13
2022-10-21T20:33:58.259Z,10.93
2022-10-21T20:36:28.299Z,10.52
2022-10-21T20:41:27.333Z,12.07
2022-10-21T20:43:55.167Z,12.27
2022-10-21T20:46:24.448Z,13.60
2022-10-21T20:48:53.515Z,11.85
2022-10-21T20:51:29.110Z,12.47
2022-10-21T20:53:59.482Z,13.25
2022-10-21T20:56:28.559Z,12.40
2022-10-21T20:58:55.765Z,14.70
2022-10-21T21:01:26.099Z,13.93
2022-10-21T21:03:55.575Z,18.75
2022-10-21T21:06:22.746Z,15.43
2022-10-21T21:09:08.615Z,18.20
2022-10-21T21:11:36.793Z,15.43
2022-10-21T21:14:04.521Z,16.15
2022-10-21T21:16:31.613Z,15.40
2022-10-21T21:19:04.055Z,12.18
2022-10-21T21:21:33.817Z,17.98
2022-10-21T21:24:01.160Z,16.80
2022-10-21T21:26:36.767Z,13.80
2022-10-21T21:29:06.404Z,10.68
2022-10-21T21:31:34.922Z,13.32
2022-10-21T21:34:02.251Z,12.23
2022-10-21T21:36:29.246Z,13.75
2022-10-21T21:38:56.137Z,12.98
2022-10-21T21:41:25.299Z,11.88
2022-10-21T21:43:53.329Z,13.00
2022-10-21T21:46:25.246Z,11.80
2022-10-21T21:49:13.142Z,10.75
2022-10-21T21:51:39.942Z,9.85
2022-10-21T21:54:08.005Z,11.10
2022-10-21T21:56:34.816Z,12.45
2022-10-21T21:59:01.872Z,11.77
2022-10-21T22:01:30.008Z,11.60
2022-10-21T22:03:57.556Z,10.73
2022-10-21T22:06:27.320Z,12.15
2022-10-21T22:08:54.169Z,10.93
2022-10-21T22:11:23.184Z,12.40
2022-10-21T22:13:50.703Z,10.45
2022-10-21T22:16:19.938Z,11.23
2022-10-21T22:18:46.836Z,11.25
2022-10-21T22:21:16.396Z,11.35
2022-10-21T22:23:43.290Z,15.02
2022-10-21T22:26:12.088Z,13.60
2022-10-21T22:28:39.231Z,11.13
2022-10-21T22:31:11.619Z,15.98
2022-10-21T22:33:39.007Z,12.80
2022-10-21T22:36:06.874Z,12.68
2022-10-21T22:38:33.781Z,10.13
2022-10-21T22:41:02.455Z,14.55
2022-10-21T22:43:29.541Z,12.13
2022-10-21T22:46:05.140Z,13.48
2022-10-21T22:48:42.208Z,14.73
2022-10-21T22:51:08.969Z,11.23
2022-10-21T22:53:36.770Z,10.30
2022-10-21T22:56:03.921Z,13.25
2022-10-21T22:58:30.857Z,11.48
2022-10-21T23:03:32.102Z,15.25
2022-10-21T23:05:58.839Z,12.45
2022-10-21T23:08:28.616Z,11.70
2022-10-21T23:10:55.334Z,13.02
2022-10-21T23:13:22.226Z,12.88
2022-10-21T23:15:48.951Z,16.40
2022-10-21T23:18:15.623Z,12.82
2022-10-21T23:20:42.461Z,12.52
2022-10-21T23:23:09.664Z,11.95
2022-10-21T23:25:36.440Z,12.90
2022-10-21T23:28:04.015Z,15.60
2022-10-21T23:30:32.151Z,14.55
2022-10-21T23:32:58.934Z,12.50
2022-10-21T23:35:25.717Z,15.38
2022-10-21T23:37:52.457Z,12.15
2022-10-21T23:40:19.380Z,12.85
2022-10-21T23:42:46.124Z,11.88
2022-10-21T23:45:13.349Z,11.82
2022-10-21T23:47:40.441Z,11.30
2022-10-21T23:50:08.983Z,17.17
2022-10-21T23:52:36.721Z,14.27
2022-10-21T23:55:05.404Z,13.80
2022-10-21T23:57:32.508Z,19.00
2022-10-21T23:59:59.294Z,14.93
